sensor_id;sensor_type;location;lat;lon;timestamp;temperature;humidity
11577;DHT22;5844;51.496;6.788;2024-03-02T00:02:14;8.60;1.00
11577;DHT22;5844;51.496;6.788;2024-03-02T00:04:40;8.70;1.00
11577;DHT22;5844;51.496;6.788;2024-03-02T00:07:06;8.70;1.00
11577;DHT22;5844;51.496;6.788;2024-03-02T00:09:33;8.70;1.00
11577;DHT22;5844;51.496;6.788;2024-03-02T00:12:02;8.70;1.00
11577;DHT22;5844;51.496;6.788;2024-03-02T00:14:29;8.70;1.00
11577;DHT22;5844;51.496;6.788;2024-03-02T00:16:56;8.70;1.00
11577;DHT22;5844;51.496;6.788;2024-03-02T00:19:22;8.70;1.00
11577;DHT22;5844;51.496;6.788;2024-03-02T00:21:47;8.80;1.00
11577;DHT22;5844;51.496;6.788;2024-03-02T00:24:34;8.80;1.00
11577;DHT22;5844;51.496;6.788;2024-03-02T00:27:00;8.80;1.00
11577;DHT22;5844;51.496;6.788;2024-03-02T00:29:28;9.00;1.00
11577;DHT22;5844;51.496;6.788;2024-03-02T00:34:30;9.00;1.00
11577;DHT22;5844;51.496;6.788;2024-03-02T00:36:58;9.10;1.00
11577;DHT22;5844;51.496;6.788;2024-03-02T00:39:25;9.10;1.00
11577;DHT22;5844;51.496;6.788;2024-03-02T00:41:51;9.20;1.00
11577;DHT22;5844;51.496;6.788;2024-03-02T00:44:20;9.20;1.00
11577;DHT22;5844;51.496;6.788;2024-03-02T00:46:48;9.20;1.00
11577;DHT22;5844;51.496;6.788;2024-03-02T00:49:24;9.30;1.00
11577;DHT22;5844;51.496;6.788;2024-03-02T00:51:52;9.30;1.00
11577;DHT22;5844;51.496;6.788;2024-03-02T00:54:23;9.30;1.00
11577;DHT22;5844;51.496;6.788;2024-03-02T00:56:50;9.30;1.00
11577;DHT22;5844;51.496;6.788;2024-03-02T00:59:16;9.30;1.00
11577;DHT22;5844;51.496;6.788;2024-03-02T01:01:42;9.30;1.00
11577;DHT22;5844;51.496;6.788;2024-03-02T01:04:08;9.30;1.00
11577;DHT22;5844;51.496;6.788;2024-03-02T01:06:35;9.30;1.00
11577;DHT22;5844;51.496;6.788;2024-03-02T01:09:01;9.40;1.00
11577;DHT22;5844;51.496;6.788;2024-03-02T01:11:26;9.40;1.00
11577;DHT22;5844;51.496;6.788;2024-03-02T01:13:53;9.50;1.00
11577;DHT22;5844;51.496;6.788;2024-03-02T01:16:18;9.50;1.00
11577;DHT22;5844;51.496;6.788;2024-03-02T01:18:44;9.60;1.00
11577;DHT22;5844;51.496;6.788;2024-03-02T01:21:09;9.60;1.00
11577;DHT22;5844;51.496;6.788;2024-03-02T01:23:35;9.60;1.00
11577;DHT22;5844;51.496;6.788;2024-03-02T01:26:01;9.60;1.00
11577;DHT22;5844;51.496;6.788;2024-03-02T01:28:26;9.70;1.00
11577;DHT22;5844;51.496;6.788;2024-03-02T01:30:52;9.60;1.00
11577;DHT22;5844;51.496;6.788;2024-03-02T01:33:19;9.50;1.00
11577;DHT22;5844;51.496;6.788;2024-03-02T01:35:44;9.50;1.00
11577;DHT22;5844;51.496;6.788;2024-03-02T01:38:10;9.50;1.00
11577;DHT22;5844;51.496;6.788;2024-03-02T01:40:37;9.50;1.00
11577;DHT22;5844;51.496;6.788;2024-03-02T01:43:04;9.40;1.00
11577;DHT22;5844;51.496;6.788;2024-03-02T01:45:30;9.30;1.00
11577;DHT22;5844;51.496;6.788;2024-03-02T01:47:56;9.20;1.00
11577;DHT22;5844;51.496;6.788;2024-03-02T01:50:30;9.10;1.00
11577;DHT22;5844;51.496;6.788;2024-03-02T01:52:57;9.20;1.00
11577;DHT22;5844;51.496;6.788;2024-03-02T01:55:23;9.20;1.00
11577;DHT22;5844;51.496;6.788;2024-03-02T01:57:49;9.10;1.00
11577;DHT22;5844;51.496;6.788;2024-03-02T02:00:16;9.20;1.00
11577;DHT22;5844;51.496;6.788;2024-03-02T02:02:43;9.20;1.00
11577;DHT22;5844;51.496;6.788;2024-03-02T02:05:08;9.30;1.00
11577;DHT22;5844;51.496;6.788;2024-03-02T02:07:35;9.30;1.00
11577;DHT22;5844;51.496;6.788;2024-03-02T02:10:01;9.30;1.00
11577;DHT22;5844;51.496;6.788;2024-03-02T02:12:27;9.40;1.00
11577;DHT22;5844;51.496;6.788;2024-03-02T02:14:53;9.50;1.00
11577;DHT22;5844;51.496;6.788;2024-03-02T02:17:19;9.50;1.00
11577;DHT22;5844;51.496;6.788;2024-03-02T02:19:44;9.50;1.00
11577;DHT22;5844;51.496;6.788;2024-03-02T02:22:11;9.50;1.00
11577;DHT22;5844;51.496;6.788;2024-03-02T02:24:40;9.60;1.00
11577;DHT22;5844;51.496;6.788;2024-03-02T02:27:06;9.60;1.00
11577;DHT22;5844;51.496;6.788;2024-03-02T02:29:32;9.60;1.00
11577;DHT22;5844;51.496;6.788;2024-03-02T02:31:57;9.70;1.00
11577;DHT22;5844;51.496;6.788;2024-03-02T02:34:23;9.70;1.00
11577;DHT22;5844;51.496;6.788;2024-03-02T02:36:49;9.70;1.00
11577;DHT22;5844;51.496;6.788;2024-03-02T02:39:16;9.70;1.00
11577;DHT22;5844;51.496;6.788;2024-03-02T02:41:44;9.70;1.00
11577;DHT22;5844;51.496;6.788;2024-03-02T02:44:09;9.80;1.00
11577;DHT22;5844;51.496;6.788;2024-03-02T02:46:38;9.70;1.00
11577;DHT22;5844;51.496;6.788;2024-03-02T02:49:04;9.80;1.00
11577;DHT22;5844;51.496;6.788;2024-03-02T02:51:30;9.90;1.00
11577;DHT22;5844;51.496;6.788;2024-03-02T02:53:55;9.90;1.00
11577;DHT22;5844;51.496;6.788;2024-03-02T02:56:21;9.80;1.00
11577;DHT22;5844;51.496;6.788;2024-03-02T02:58:47;9.80;1.00
11577;DHT22;5844;51.496;6.788;2024-03-02T03:01:13;9.80;1.00
11577;DHT22;5844;51.496;6.788;2024-03-02T03:03:39;9.70;1.00
11577;DHT22;5844;51.496;6.788;2024-03-02T03:06:04;9.60;1.00
11577;DHT22;5844;51.496;6.788;2024-03-02T03:08:30;9.70;1.00
11577;DHT22;5844;51.496;6.788;2024-03-02T03:10:56;9.70;1.00
11577;DHT22;5844;51.496;6.788;2024-03-02T03:13:21;9.70;1.00
11577;DHT22;5844;51.496;6.788;2024-03-02T03:15:47;9.60;1.00
11577;DHT22;5844;51.496;6.788;2024-03-02T03:18:12;9.60;1.00
11577;DHT22;5844;51.496;6.788;2024-03-02T03:20:38;9.70;1.00
11577;DHT22;5844;51.496;6.788;2024-03-02T03:23:04;9.70;1.00
11577;DHT22;5844;51.496;6.788;2024-03-02T03:25:30;9.70;1.00
11577;DHT22;5844;51.496;6.788;2024-03-02T03:27:56;9.70;1.00
11577;DHT22;5844;51.496;6.788;2024-03-02T03:30:21;9.70;1.00
11577;DHT22;5844;51.496;6.788;2024-03-02T03:32:47;9.70;1.00
11577;DHT22;5844;51.496;6.788;2024-03-02T03:35:16;9.80;1.00
11577;DHT22;5844;51.496;6.788;2024-03-02T03:37:41;9.70;1.00
11577;DHT22;5844;51.496;6.788;2024-03-02T03:40:07;9.70;1.00
11577;DHT22;5844;51.496;6.788;2024-03-02T03:42:38;9.60;1.00
11577;DHT22;5844;51.496;6.788;2024-03-02T03:45:05;9.70;1.00
11577;DHT22;5844;51.496;6.788;2024-03-02T03:47:34;9.70;1.00
11577;DHT22;5844;51.496;6.788;2024-03-02T03:49:59;9.70;1.00
11577;DHT22;5844;51.496;6.788;2024-03-02T03:52:25;9.80;1.00
11577;DHT22;5844;51.496;6.788;2024-03-02T03:54:51;10.10;1.00
11577;DHT22;5844;51.496;6.788;2024-03-02T03:57:17;9.60;1.00
11577;DHT22;5844;51.496;6.788;2024-03-02T03:59:43;9.50;1.00
11577;DHT22;5844;51.496;6.788;2024-03-02T04:02:09;9.40;1.00
11577;DHT22;5844;51.496;6.788;2024-03-02T04:04:37;9.30;1.00
11577;DHT22;5844;51.496;6.788;2024-03-02T04:07:02;9.50;1.00
11577;DHT22;5844;51.496;6.788;2024-03-02T04:09:28;9.20;1.00
11577;DHT22;5844;51.496;6.788;2024-03-02T04:11:53;9.20;1.00
11577;DHT22;5844;51.496;6.788;2024-03-02T04:14:19;9.00;1.00
11577;DHT22;5844;51.496;6.788;2024-03-02T04:16:45;8.90;1.00
11577;DHT22;5844;51.496;6.788;2024-03-02T04:19:10;8.80;1.00
11577;DHT22;5844;51.496;6.788;2024-03-02T04:21:36;8.80;1.00
11577;DHT22;5844;51.496;6.788;2024-03-02T04:24:02;8.70;1.00
11577;DHT22;5844;51.496;6.788;2024-03-02T04:26:28;8.70;1.00
11577;DHT22;5844;51.496;6.788;2024-03-02T04:28:54;8.80;1.00
11577;DHT22;5844;51.496;6.788;2024-03-02T04:31:20;8.60;1.00
11577;DHT22;5844;51.496;6.788;2024-03-02T04:33:46;8.60;1.00
11577;DHT22;5844;51.496;6.788;2024-03-02T04:36:11;8.40;1.00
11577;DHT22;5844;51.496;6.788;2024-03-02T04:38:38;8.30;1.00
11577;DHT22;5844;51.496;6.788;2024-03-02T04:41:04;8.30;1.00
11577;DHT22;5844;51.496;6.788;2024-03-02T04:43:33;8.30;1.00
11577;DHT22;5844;51.496;6.788;2024-03-02T04:46:00;8.20;1.00
11577;DHT22;5844;51.496;6.788;2024-03-02T04:48:26;8.30;1.00
11577;DHT22;5844;51.496;6.788;2024-03-02T04:50:52;8.20;1.00
11577;DHT22;5844;51.496;6.788;2024-03-02T04:53:17;8.20;1.00
11577;DHT22;5844;51.496;6.788;2024-03-02T04:55:43;8.30;1.00
11577;DHT22;5844;51.496;6.788;2024-03-02T04:58:09;8.30;1.00
11577;DHT22;5844;51.496;6.788;2024-03-02T05:00:35;8.30;1.00
11577;DHT22;5844;51.496;6.788;2024-03-02T05:03:01;8.50;1.00
11577;DHT22;5844;51.496;6.788;2024-03-02T05:05:27;8.20;1.00
11577;DHT22;5844;51.496;6.788;2024-03-02T05:07:53;8.30;1.00
11577;DHT22;5844;51.496;6.788;2024-03-02T05:10:18;7.90;1.00
11577;DHT22;5844;51.496;6.788;2024-03-02T05:12:44;7.80;1.00
11577;DHT22;5844;51.496;6.788;2024-03-02T05:15:12;7.70;1.00
11577;DHT22;5844;51.496;6.788;2024-03-02T05:17:41;7.70;1.00
11577;DHT22;5844;51.496;6.788;2024-03-02T05:20:09;7.50;1.00
11577;DHT22;5844;51.496;6.788;2024-03-02T05:22:35;7.40;1.00
11577;DHT22;5844;51.496;6.788;2024-03-02T05:25:04;7.30;1.00
11577;DHT22;5844;51.496;6.788;2024-03-02T05:27:30;7.30;1.00
11577;DHT22;5844;51.496;6.788;2024-03-02T05:29:58;7.20;1.00
11577;DHT22;5844;51.496;6.788;2024-03-02T05:32:23;7.40;1.00
11577;DHT22;5844;51.496;6.788;2024-03-02T05:34:49;7.20;1.00
11577;DHT22;5844;51.496;6.788;2024-03-02T05:37:16;7.30;1.00
11577;DHT22;5844;51.496;6.788;2024-03-02T05:39:42;7.10;1.00
11577;DHT22;5844;51.496;6.788;2024-03-02T05:42:08;7.30;1.00
11577;DHT22;5844;51.496;6.788;2024-03-02T05:44:35;7.00;1.00
11577;DHT22;5844;51.496;6.788;2024-03-02T05:47:01;7.10;1.00
11577;DHT22;5844;51.496;6.788;2024-03-02T05:49:26;7.20;1.00
11577;DHT22;5844;51.496;6.788;2024-03-02T05:51:52;7.30;1.00
11577;DHT22;5844;51.496;6.788;2024-03-02T05:54:18;7.20;1.00
11577;DHT22;5844;51.496;6.788;2024-03-02T05:56:43;7.40;1.00
11577;DHT22;5844;51.496;6.788;2024-03-02T05:59:09;7.30;1.00
11577;DHT22;5844;51.496;6.788;2024-03-02T06:01:48;8.10;1.00
11577;DHT22;5844;51.496;6.788;2024-03-02T06:04:17;7.50;1.00
11577;DHT22;5844;51.496;6.788;2024-03-02T06:06:42;7.50;1.00
11577;DHT22;5844;51.496;6.788;2024-03-02T06:09:09;7.50;1.00
11577;DHT22;5844;51.496;6.788;2024-03-02T06:11:38;7.70;1.00
11577;DHT22;5844;51.496;6.788;2024-03-02T06:14:05;7.50;1.00
11577;DHT22;5844;51.496;6.788;2024-03-02T06:16:31;7.50;1.00
11577;DHT22;5844;51.496;6.788;2024-03-02T06:18:58;7.50;1.00
11577;DHT22;5844;51.496;6.788;2024-03-02T06:21:27;7.40;1.00
11577;DHT22;5844;51.496;6.788;2024-03-02T06:23:53;8.40;1.00
11577;DHT22;5844;51.496;6.788;2024-03-02T06:26:19;8.20;1.00
11577;DHT22;5844;51.496;6.788;2024-03-02T06:28:45;7.70;1.00
11577;DHT22;5844;51.496;6.788;2024-03-02T06:31:11;7.40;1.00
11577;DHT22;5844;51.496;6.788;2024-03-02T06:33:37;7.40;1.00
11577;DHT22;5844;51.496;6.788;2024-03-02T06:36:03;7.40;1.00
11577;DHT22;5844;51.496;6.788;2024-03-02T06:38:29;7.40;1.00
11577;DHT22;5844;51.496;6.788;2024-03-02T06:40:55;7.60;1.00
11577;DHT22;5844;51.496;6.788;2024-03-02T06:43:21;7.50;1.00
11577;DHT22;5844;51.496;6.788;2024-03-02T06:45:50;7.50;1.00
11577;DHT22;5844;51.496;6.788;2024-03-02T06:48:16;7.60;1.00
11577;DHT22;5844;51.496;6.788;2024-03-02T06:50:46;7.60;1.00
11577;DHT22;5844;51.496;6.788;2024-03-02T06:53:12;7.60;1.00
11577;DHT22;5844;51.496;6.788;2024-03-02T06:55:37;8.10;1.00
11577;DHT22;5844;51.496;6.788;2024-03-02T06:58:03;7.80;1.00
11577;DHT22;5844;51.496;6.788;2024-03-02T07:00:29;7.90;1.00
11577;DHT22;5844;51.496;6.788;2024-03-02T07:02:55;8.00;1.00
11577;DHT22;5844;51.496;6.788;2024-03-02T07:05:20;8.10;1.00
11577;DHT22;5844;51.496;6.788;2024-03-02T07:07:46;8.40;1.00
11577;DHT22;5844;51.496;6.788;2024-03-02T07:10:12;8.70;1.00
11577;DHT22;5844;51.496;6.788;2024-03-02T07:12:37;8.50;1.00
11577;DHT22;5844;51.496;6.788;2024-03-02T07:15:03;8.70;1.00
11577;DHT22;5844;51.496;6.788;2024-03-02T07:17:32;8.70;1.00
11577;DHT22;5844;51.496;6.788;2024-03-02T07:19:58;8.80;1.00
11577;DHT22;5844;51.496;6.788;2024-03-02T07:22:24;8.90;1.00
11577;DHT22;5844;51.496;6.788;2024-03-02T07:24:50;9.30;1.00
11577;DHT22;5844;51.496;6.788;2024-03-02T07:27:16;9.00;1.00
11577;DHT22;5844;51.496;6.788;2024-03-02T07:29:42;9.30;1.00
11577;DHT22;5844;51.496;6.788;2024-03-02T07:32:09;9.00;1.00
11577;DHT22;5844;51.496;6.788;2024-03-02T07:34:36;9.00;1.00
11577;DHT22;5844;51.496;6.788;2024-03-02T07:37:03;9.00;1.00
11577;DHT22;5844;51.496;6.788;2024-03-02T07:39:29;9.00;1.00
11577;DHT22;5844;51.496;6.788;2024-03-02T07:41:55;9.10;1.00
11577;DHT22;5844;51.496;6.788;2024-03-02T07:44:21;9.10;1.00
11577;DHT22;5844;51.496;6.788;2024-03-02T07:46:48;9.10;1.00
11577;DHT22;5844;51.496;6.788;2024-03-02T07:49:15;9.10;1.00
11577;DHT22;5844;51.496;6.788;2024-03-02T07:51:41;9.20;1.00
11577;DHT22;5844;51.496;6.788;2024-03-02T07:54:07;9.30;1.00
11577;DHT22;5844;51.496;6.788;2024-03-02T07:56:33;9.40;1.00
11577;DHT22;5844;51.496;6.788;2024-03-02T07:58:59;9.60;1.00
11577;DHT22;5844;51.496;6.788;2024-03-02T08:01:30;9.70;1.00
11577;DHT22;5844;51.496;6.788;2024-03-02T08:04:02;9.80;1.00
11577;DHT22;5844;51.496;6.788;2024-03-02T08:06:29;9.90;1.00
11577;DHT22;5844;51.496;6.788;2024-03-02T08:08:58;9.90;1.00
11577;DHT22;5844;51.496;6.788;2024-03-02T08:11:24;9.70;1.00
11577;DHT22;5844;51.496;6.788;2024-03-02T08:13:50;9.60;1.00
11577;DHT22;5844;51.496;6.788;2024-03-02T08:16:17;9.50;1.00
11577;DHT22;5844;51.496;6.788;2024-03-02T08:18:47;9.50;1.00
11577;DHT22;5844;51.496;6.788;2024-03-02T08:21:13;9.50;1.00
11577;DHT22;5844;51.496;6.788;2024-03-02T08:23:39;9.70;1.00
11577;DHT22;5844;51.496;6.788;2024-03-02T08:26:06;9.70;1.00
11577;DHT22;5844;51.496;6.788;2024-03-02T08:28:32;9.70;1.00
11577;DHT22;5844;51.496;6.788;2024-03-02T08:30:58;9.80;1.00
11577;DHT22;5844;51.496;6.788;2024-03-02T08:33:24;9.70;1.00
11577;DHT22;5844;51.496;6.788;2024-03-02T08:35:49;9.70;1.00
11577;DHT22;5844;51.496;6.788;2024-03-02T08:38:15;9.80;1.00
11577;DHT22;5844;51.496;6.788;2024-03-02T08:40:41;9.70;1.00
11577;DHT22;5844;51.496;6.788;2024-03-02T08:43:07;9.80;1.00
11577;DHT22;5844;51.496;6.788;2024-03-02T08:45:32;10.30;1.00
11577;DHT22;5844;51.496;6.788;2024-03-02T08:48:00;10.40;1.00
11577;DHT22;5844;51.496;6.788;2024-03-02T08:50:25;10.60;1.00
11577;DHT22;5844;51.496;6.788;2024-03-02T08:52:51;10.90;1.00
11577;DHT22;5844;51.496;6.788;2024-03-02T08:55:17;11.10;1.00
11577;DHT22;5844;51.496;6.788;2024-03-02T08:57:42;11.30;1.00
11577;DHT22;5844;51.496;6.788;2024-03-02T09:00:08;11.50;1.00
11577;DHT22;5844;51.496;6.788;2024-03-02T09:02:34;11.50;1.00
11577;DHT22;5844;51.496;6.788;2024-03-02T09:05:01;11.50;1.00
11577;DHT22;5844;51.496;6.788;2024-03-02T09:07:27;11.50;1.00
11577;DHT22;5844;51.496;6.788;2024-03-02T09:09:52;11.60;1.00
11577;DHT22;5844;51.496;6.788;2024-03-02T09:12:19;11.80;1.00
11577;DHT22;5844;51.496;6.788;2024-03-02T09:14:45;12.40;1.00
11577;DHT22;5844;51.496;6.788;2024-03-02T09:17:11;12.40;1.00
11577;DHT22;5844;51.496;6.788;2024-03-02T09:19:37;12.50;1.00
11577;DHT22;5844;51.496;6.788;2024-03-02T09:22:03;13.10;1.00
11577;DHT22;5844;51.496;6.788;2024-03-02T09:24:31;12.90;1.00
11577;DHT22;5844;51.496;6.788;2024-03-02T09:26:57;12.90;1.00
11577;DHT22;5844;51.496;6.788;2024-03-02T09:29:22;12.70;1.00
11577;DHT22;5844;51.496;6.788;2024-03-02T09:31:48;12.80;1.00
11577;DHT22;5844;51.496;6.788;2024-03-02T09:34:15;13.10;1.00
11577;DHT22;5844;51.496;6.788;2024-03-02T09:36:41;13.60;1.00
11577;DHT22;5844;51.496;6.788;2024-03-02T09:39:10;13.90;1.00
11577;DHT22;5844;51.496;6.788;2024-03-02T09:41:37;13.70;1.00
11577;DHT22;5844;51.496;6.788;2024-03-02T09:44:03;14.00;1.00
11577;DHT22;5844;51.496;6.788;2024-03-02T09:46:28;14.40;1.00
11577;DHT22;5844;51.496;6.788;2024-03-02T09:48:54;14.70;1.00
11577;DHT22;5844;51.496;6.788;2024-03-02T09:51:20;14.50;1.00
11577;DHT22;5844;51.496;6.788;2024-03-02T09:53:47;14.50;1.00
11577;DHT22;5844;51.496;6.788;2024-03-02T09:56:13;14.80;1.00
11577;DHT22;5844;51.496;6.788;2024-03-02T09:58:39;14.90;1.00
11577;DHT22;5844;51.496;6.788;2024-03-02T10:01:06;15.10;1.00
11577;DHT22;5844;51.496;6.788;2024-03-02T10:03:33;15.10;1.00
11577;DHT22;5844;51.496;6.788;2024-03-02T10:06:37;14.80;1.00
11577;DHT22;5844;51.496;6.788;2024-03-02T10:09:03;14.90;1.00
11577;DHT22;5844;51.496;6.788;2024-03-02T10:11:31;15.30;1.00
11577;DHT22;5844;51.496;6.788;2024-03-02T10:14:11;15.00;1.00
11577;DHT22;5844;51.496;6.788;2024-03-02T10:16:40;15.00;1.00
11577;DHT22;5844;51.496;6.788;2024-03-02T10:19:19;14.80;1.00
11577;DHT22;5844;51.496;6.788;2024-03-02T10:21:52;14.60;1.00
11577;DHT22;5844;51.496;6.788;2024-03-02T10:24:22;15.10;1.00
11577;DHT22;5844;51.496;6.788;2024-03-02T10:26:48;15.90;1.00
11577;DHT22;5844;51.496;6.788;2024-03-02T10:29:14;15.50;1.00
11577;DHT22;5844;51.496;6.788;2024-03-02T10:31:43;15.50;1.00
11577;DHT22;5844;51.496;6.788;2024-03-02T10:34:10;15.70;1.00
11577;DHT22;5844;51.496;6.788;2024-03-02T10:36:37;15.90;1.00
11577;DHT22;5844;51.496;6.788;2024-03-02T10:39:06;15.40;1.00
11577;DHT22;5844;51.496;6.788;2024-03-02T10:41:37;14.90;1.00
11577;DHT22;5844;51.496;6.788;2024-03-02T10:44:07;15.30;1.00
11577;DHT22;5844;51.496;6.788;2024-03-02T10:46:34;16.40;1.00
11577;DHT22;5844;51.496;6.788;2024-03-02T10:49:02;16.30;1.00
11577;DHT22;5844;51.496;6.788;2024-03-02T10:51:29;15.60;1.00
11577;DHT22;5844;51.496;6.788;2024-03-02T10:53:58;15.80;1.00
11577;DHT22;5844;51.496;6.788;2024-03-02T10:56:41;16.50;1.00
11577;DHT22;5844;51.496;6.788;2024-03-02T10:59:17;17.80;1.00
11577;DHT22;5844;51.496;6.788;2024-03-02T11:01:50;17.90;1.00
11577;DHT22;5844;51.496;6.788;2024-03-02T11:04:19;17.00;1.00
11577;DHT22;5844;51.496;6.788;2024-03-02T11:06:51;16.00;1.00
11577;DHT22;5844;51.496;6.788;2024-03-02T11:09:23;15.80;1.00
11577;DHT22;5844;51.496;6.788;2024-03-02T11:12:03;15.90;1.00
11577;DHT22;5844;51.496;6.788;2024-03-02T11:14:32;16.30;1.00
11577;DHT22;5844;51.496;6.788;2024-03-02T11:17:02;16.90;1.00
11577;DHT22;5844;51.496;6.788;2024-03-02T11:19:29;17.30;1.00
11577;DHT22;5844;51.496;6.788;2024-03-02T11:21:56;17.70;1.00
11577;DHT22;5844;51.496;6.788;2024-03-02T11:26:49;17.20;1.00
11577;DHT22;5844;51.496;6.788;2024-03-02T11:32:01;18.00;1.00
11577;DHT22;5844;51.496;6.788;2024-03-02T11:34:46;18.60;1.00
11577;DHT22;5844;51.496;6.788;2024-03-02T11:37:13;18.10;1.00
11577;DHT22;5844;51.496;6.788;2024-03-02T11:39:40;17.70;1.00
11577;DHT22;5844;51.496;6.788;2024-03-02T11:42:09;18.00;1.00
11577;DHT22;5844;51.496;6.788;2024-03-02T11:44:37;18.00;1.00
11577;DHT22;5844;51.496;6.788;2024-03-02T11:47:06;18.70;1.00
11577;DHT22;5844;51.496;6.788;2024-03-02T11:49:48;19.50;1.00
11577;DHT22;5844;51.496;6.788;2024-03-02T11:52:15;18.90;1.00
11577;DHT22;5844;51.496;6.788;2024-03-02T11:54:46;18.80;1.00
11577;DHT22;5844;51.496;6.788;2024-03-02T11:57:22;18.90;1.00
11577;DHT22;5844;51.496;6.788;2024-03-02T11:59:49;19.00;1.00
11577;DHT22;5844;51.496;6.788;2024-03-02T12:02:21;19.50;1.00
11577;DHT22;5844;51.496;6.788;2024-03-02T12:04:48;19.80;1.00
11577;DHT22;5844;51.496;6.788;2024-03-02T12:07:21;19.80;1.00
11577;DHT22;5844;51.496;6.788;2024-03-02T12:09:47;18.90;1.00
11577;DHT22;5844;51.496;6.788;2024-03-02T12:12:13;18.30;1.00
11577;DHT22;5844;51.496;6.788;2024-03-02T12:14:51;18.10;1.00
11577;DHT22;5844;51.496;6.788;2024-03-02T12:17:18;18.20;1.00
11577;DHT22;5844;51.496;6.788;2024-03-02T12:19:44;17.80;1.00
11577;DHT22;5844;51.496;6.788;2024-03-02T12:22:11;17.60;1.00
11577;DHT22;5844;51.496;6.788;2024-03-02T12:24:37;17.80;1.00
11577;DHT22;5844;51.496;6.788;2024-03-02T12:27:04;17.80;1.00
11577;DHT22;5844;51.496;6.788;2024-03-02T12:29:30;17.40;1.00
11577;DHT22;5844;51.496;6.788;2024-03-02T12:31:56;16.90;1.00
11577;DHT22;5844;51.496;6.788;2024-03-02T12:34:22;16.80;1.00
11577;DHT22;5844;51.496;6.788;2024-03-02T12:36:49;16.80;1.00
11577;DHT22;5844;51.496;6.788;2024-03-02T12:39:18;16.30;1.00
11577;DHT22;5844;51.496;6.788;2024-03-02T12:41:45;16.40;1.00
11577;DHT22;5844;51.496;6.788;2024-03-02T12:44:11;16.30;1.00
11577;DHT22;5844;51.496;6.788;2024-03-02T12:46:37;16.80;1.00
11577;DHT22;5844;51.496;6.788;2024-03-02T12:49:10;17.40;1.00
11577;DHT22;5844;51.496;6.788;2024-03-02T12:51:40;17.70;1.00
11577;DHT22;5844;51.496;6.788;2024-03-02T12:54:10;17.00;1.00
11577;DHT22;5844;51.496;6.788;2024-03-02T12:56:41;16.90;1.00
11577;DHT22;5844;51.496;6.788;2024-03-02T12:59:18;16.80;1.00
11577;DHT22;5844;51.496;6.788;2024-03-02T13:01:54;16.50;1.00
11577;DHT22;5844;51.496;6.788;2024-03-02T13:04:26;16.40;1.00
11577;DHT22;5844;51.496;6.788;2024-03-02T13:06:55;16.40;1.00
11577;DHT22;5844;51.496;6.788;2024-03-02T13:09:23;16.50;1.00
11577;DHT22;5844;51.496;6.788;2024-03-02T13:11:49;16.30;1.00
11577;DHT22;5844;51.496;6.788;2024-03-02T13:14:15;16.30;1.00
11577;DHT22;5844;51.496;6.788;2024-03-02T13:16:41;16.20;1.00
11577;DHT22;5844;51.496;6.788;2024-03-02T13:19:08;16.10;1.00
11577;DHT22;5844;51.496;6.788;2024-03-02T13:21:34;15.90;1.00
11577;DHT22;5844;51.496;6.788;2024-03-02T13:24:00;15.70;1.00
11577;DHT22;5844;51.496;6.788;2024-03-02T13:26:26;15.70;1.00
11577;DHT22;5844;51.496;6.788;2024-03-02T13:28:53;15.70;1.00
11577;DHT22;5844;51.496;6.788;2024-03-02T13:31:18;15.70;1.00
11577;DHT22;5844;51.496;6.788;2024-03-02T13:33:44;15.80;1.00
11577;DHT22;5844;51.496;6.788;2024-03-02T13:36:10;15.80;1.00
11577;DHT22;5844;51.496;6.788;2024-03-02T13:38:35;15.90;1.00
11577;DHT22;5844;51.496;6.788;2024-03-02T13:41:01;15.90;1.00
11577;DHT22;5844;51.496;6.788;2024-03-02T13:43:27;15.90;1.00
11577;DHT22;5844;51.496;6.788;2024-03-02T13:45:53;15.80;1.00
11577;DHT22;5844;51.496;6.788;2024-03-02T13:48:19;15.80;1.00
11577;DHT22;5844;51.496;6.788;2024-03-02T13:50:46;15.60;1.00
11577;DHT22;5844;51.496;6.788;2024-03-02T13:53:11;15.60;1.00
11577;DHT22;5844;51.496;6.788;2024-03-02T13:55:37;15.50;1.00
11577;DHT22;5844;51.496;6.788;2024-03-02T13:58:03;15.50;1.00
11577;DHT22;5844;51.496;6.788;2024-03-02T14:00:29;15.50;1.00
11577;DHT22;5844;51.496;6.788;2024-03-02T14:02:55;15.50;1.00
11577;DHT22;5844;51.496;6.788;2024-03-02T14:05:21;15.60;1.00
11577;DHT22;5844;51.496;6.788;2024-03-02T14:07:46;15.60;1.00
11577;DHT22;5844;51.496;6.788;2024-03-02T14:10:12;15.70;1.00
11577;DHT22;5844;51.496;6.788;2024-03-02T14:12:40;15.60;1.00
11577;DHT22;5844;51.496;6.788;2024-03-02T14:15:06;15.60;1.00
11577;DHT22;5844;51.496;6.788;2024-03-02T14:17:32;15.60;1.00
11577;DHT22;5844;51.496;6.788;2024-03-02T14:19:58;15.90;1.00
11577;DHT22;5844;51.496;6.788;2024-03-02T14:22:27;15.80;1.00
11577;DHT22;5844;51.496;6.788;2024-03-02T14:24:53;15.60;1.00
11577;DHT22;5844;51.496;6.788;2024-03-02T14:27:18;15.60;1.00
11577;DHT22;5844;51.496;6.788;2024-03-02T14:29:44;15.40;1.00
11577;DHT22;5844;51.496;6.788;2024-03-02T14:32:10;15.40;1.00
11577;DHT22;5844;51.496;6.788;2024-03-02T14:34:35;15.30;1.00
11577;DHT22;5844;51.496;6.788;2024-03-02T14:37:01;15.20;1.00
11577;DHT22;5844;51.496;6.788;2024-03-02T14:39:28;15.40;1.00
11577;DHT22;5844;51.496;6.788;2024-03-02T14:41:54;15.60;1.00
11577;DHT22;5844;51.496;6.788;2024-03-02T14:44:20;16.20;1.00
11577;DHT22;5844;51.496;6.788;2024-03-02T14:46:48;17.20;1.00
11577;DHT22;5844;51.496;6.788;2024-03-02T14:49:14;18.00;1.00
11577;DHT22;5844;51.496;6.788;2024-03-02T14:51:40;18.80;1.00
11577;DHT22;5844;51.496;6.788;2024-03-02T14:54:06;19.30;1.00
11577;DHT22;5844;51.496;6.788;2024-03-02T14:56:32;18.70;1.00
11577;DHT22;5844;51.496;6.788;2024-03-02T14:58:58;18.00;1.00
11577;DHT22;5844;51.496;6.788;2024-03-02T15:01:23;17.30;1.00
11577;DHT22;5844;51.496;6.788;2024-03-02T15:03:53;16.90;1.00
11577;DHT22;5844;51.496;6.788;2024-03-02T15:06:19;16.50;1.00
11577;DHT22;5844;51.496;6.788;2024-03-02T15:08:44;16.50;1.00
11577;DHT22;5844;51.496;6.788;2024-03-02T15:11:13;16.20;1.00
11577;DHT22;5844;51.496;6.788;2024-03-02T15:13:39;16.10;1.00
11577;DHT22;5844;51.496;6.788;2024-03-02T15:16:05;16.30;1.00
11577;DHT22;5844;51.496;6.788;2024-03-02T15:18:31;17.00;1.00
11577;DHT22;5844;51.496;6.788;2024-03-02T15:20:57;17.70;1.00
11577;DHT22;5844;51.496;6.788;2024-03-02T15:23:22;18.00;1.00
11577;DHT22;5844;51.496;6.788;2024-03-02T15:25:49;17.80;1.00
11577;DHT22;5844;51.496;6.788;2024-03-02T15:28:15;18.40;1.00
11577;DHT22;5844;51.496;6.788;2024-03-02T15:30:41;18.80;1.00
11577;DHT22;5844;51.496;6.788;2024-03-02T15:33:07;19.20;1.00
11577;DHT22;5844;51.496;6.788;2024-03-02T15:35:33;19.50;1.00
11577;DHT22;5844;51.496;6.788;2024-03-02T15:37:58;18.60;1.00
11577;DHT22;5844;51.496;6.788;2024-03-02T15:40:24;18.50;1.00
11577;DHT22;5844;51.496;6.788;2024-03-02T15:42:50;17.70;1.00
11577;DHT22;5844;51.496;6.788;2024-03-02T15:45:16;17.10;1.00
11577;DHT22;5844;51.496;6.788;2024-03-02T15:47:42;16.50;1.00
11577;DHT22;5844;51.496;6.788;2024-03-02T15:50:09;16.10;1.00
11577;DHT22;5844;51.496;6.788;2024-03-02T15:52:34;15.80;1.00
11577;DHT22;5844;51.496;6.788;2024-03-02T15:55:00;15.70;1.00
11577;DHT22;5844;51.496;6.788;2024-03-02T15:57:27;15.60;1.00
11577;DHT22;5844;51.496;6.788;2024-03-02T15:59:52;15.50;1.00
11577;DHT22;5844;51.496;6.788;2024-03-02T16:02:18;15.30;1.00
11577;DHT22;5844;51.496;6.788;2024-03-02T16:04:44;15.10;1.00
11577;DHT22;5844;51.496;6.788;2024-03-02T16:07:09;15.10;1.00
11577;DHT22;5844;51.496;6.788;2024-03-02T16:09:35;15.10;1.00
11577;DHT22;5844;51.496;6.788;2024-03-02T16:12:01;15.10;1.00
11577;DHT22;5844;51.496;6.788;2024-03-02T16:14:28;15.00;1.00
11577;DHT22;5844;51.496;6.788;2024-03-02T16:16:54;15.00;1.00